Santo Antonio do Ica, Brazil
Current Conditions -  °F | °C
As of 4:00 AM on Sunday 26 Oct 2014 (Local Time) from SKLT Reporting Station
Broken Clouds Broken Clouds  
Wind Chill: 75°   Ceiling: 800
Heat Index: 75°   Visibility: 6mi
Dew Point: 75°   Wind: 0mph
Humidity: 100%   Direction: NA
Pressure: 29.81"   Gusts: NA
Location:  3.1°S, 67.94°W
Report Text: SKLT 260800Z 00000KT 9999 BKN008 BKN070 24/24 A2981 RMK AD OPR IMC
Loading
Personal Weather Stations






























Interactive Weather Map
Tropical Storm Tracking
New forecast layout! Learn more

10-Day Weather Forecast

Advertisements
Track Severe Weather on mobile